sensor_id;sensor_type;location;lat;lon;timestamp;pressure;altitude;pressure_sealevel;temperature;humidity
49843;BME280;55559;48.898;9.184;2023-06-22T00:01:18;98421.47;;;20.33;100.00
49843;BME280;55559;48.898;9.184;2023-06-22T00:03:44;98401.72;;;20.26;100.00
49843;BME280;55559;48.898;9.184;2023-06-22T00:06:12;98393.19;;;20.22;100.00
49843;BME280;55559;48.898;9.184;2023-06-22T00:08:43;98405.44;;;20.25;100.00
49843;BME280;55559;48.898;9.184;2023-06-22T00:11:10;98404.38;;;20.19;100.00
49843;BME280;55559;48.898;9.184;2023-06-22T00:13:37;98382.69;;;19.99;100.00
49843;BME280;55559;48.898;9.184;2023-06-22T00:16:05;98399.53;;;20.08;100.00
49843;BME280;55559;48.898;9.184;2023-06-22T00:18:32;98385.13;;;19.94;100.00
49843;BME280;55559;48.898;9.184;2023-06-22T00:20:59;98409.13;;;20.11;100.00
49843;BME280;55559;48.898;9.184;2023-06-22T00:23:26;98396.00;;;20.07;100.00
49843;BME280;55559;48.898;9.184;2023-06-22T00:25:53;98402.44;;;20.06;100.00
49843;BME280;55559;48.898;9.184;2023-06-22T00:28:20;98407.41;;;20.03;100.00
49843;BME280;55559;48.898;9.184;2023-06-22T00:30:48;98383.88;;;19.90;100.00
49843;BME280;55559;48.898;9.184;2023-06-22T00:33:17;98401.38;;;20.01;100.00
49843;BME280;55559;48.898;9.184;2023-06-22T00:35:43;98389.09;;;19.98;100.00
49843;BME280;55559;48.898;9.184;2023-06-22T00:38:10;98365.78;;;19.84;100.00
49843;BME280;55559;48.898;9.184;2023-06-22T00:40:37;98385.53;;;19.91;100.00
49843;BME280;55559;48.898;9.184;2023-06-22T00:43:05;98391.16;;;19.96;100.00
49843;BME280;55559;48.898;9.184;2023-06-22T00:45:32;98397.63;;;19.95;100.00
49843;BME280;55559;48.898;9.184;2023-06-22T00:47:59;98378.50;;;19.90;100.00
49843;BME280;55559;48.898;9.184;2023-06-22T00:50:29;98394.28;;;20.00;100.00
49843;BME280;55559;48.898;9.184;2023-06-22T00:52:59;98407.34;;;19.96;100.00
49843;BME280;55559;48.898;9.184;2023-06-22T00:55:28;98441.19;;;19.92;100.00
49843;BME280;55559;48.898;9.184;2023-06-22T00:57:54;98461.78;;;20.00;100.00
49843;BME280;55559;48.898;9.184;2023-06-22T01:00:23;98461.19;;;20.04;100.00
49843;BME280;55559;48.898;9.184;2023-06-22T01:02:52;98410.94;;;20.03;100.00
49843;BME280;55559;48.898;9.184;2023-06-22T01:05:20;98445.16;;;20.31;100.00
49843;BME280;55559;48.898;9.184;2023-06-22T01:07:59;98492.84;;;20.17;100.00
49843;BME280;55559;48.898;9.184;2023-06-22T01:10:32;98510.50;;;20.20;100.00
49843;BME280;55559;48.898;9.184;2023-06-22T01:13:05;98472.13;;;20.24;100.00
49843;BME280;55559;48.898;9.184;2023-06-22T01:15:37;98470.66;;;20.29;100.00
49843;BME280;55559;48.898;9.184;2023-06-22T01:18:08;98452.91;;;20.06;100.00
49843;BME280;55559;48.898;9.184;2023-06-22T01:20:36;98469.28;;;20.04;100.00
49843;BME280;55559;48.898;9.184;2023-06-22T01:23:13;98438.09;;;19.95;100.00
49843;BME280;55559;48.898;9.184;2023-06-22T01:25:47;98449.91;;;19.94;100.00
49843;BME280;55559;48.898;9.184;2023-06-22T01:28:24;98464.59;;;19.85;100.00
49843;BME280;55559;48.898;9.184;2023-06-22T01:30:53;98461.00;;;19.78;100.00
49843;BME280;55559;48.898;9.184;2023-06-22T01:33:29;98452.56;;;19.66;100.00
49843;BME280;55559;48.898;9.184;2023-06-22T01:35:58;98447.19;;;19.66;100.00
49843;BME280;55559;48.898;9.184;2023-06-22T01:38:26;98451.13;;;19.63;100.00
49843;BME280;55559;48.898;9.184;2023-06-22T01:40:55;98448.59;;;19.62;100.00
49843;BME280;55559;48.898;9.184;2023-06-22T01:43:23;98429.69;;;19.55;100.00
49843;BME280;55559;48.898;9.184;2023-06-22T01:45:51;98422.03;;;19.37;100.00
49843;BME280;55559;48.898;9.184;2023-06-22T01:48:20;98417.69;;;19.36;100.00
49843;BME280;55559;48.898;9.184;2023-06-22T01:50:47;98429.19;;;19.45;100.00
49843;BME280;55559;48.898;9.184;2023-06-22T01:53:14;98431.81;;;19.38;100.00
49843;BME280;55559;48.898;9.184;2023-06-22T01:55:41;98439.28;;;19.36;100.00
49843;BME280;55559;48.898;9.184;2023-06-22T01:58:08;98437.28;;;19.23;100.00
49843;BME280;55559;48.898;9.184;2023-06-22T02:00:37;98444.13;;;19.26;100.00
49843;BME280;55559;48.898;9.184;2023-06-22T02:03:10;98445.75;;;19.20;100.00
49843;BME280;55559;48.898;9.184;2023-06-22T02:05:52;98457.56;;;19.19;100.00
49843;BME280;55559;48.898;9.184;2023-06-22T02:08:24;98458.22;;;19.21;100.00
49843;BME280;55559;48.898;9.184;2023-06-22T02:10:52;98453.81;;;19.20;100.00
49843;BME280;55559;48.898;9.184;2023-06-22T02:13:20;98458.13;;;19.14;100.00
49843;BME280;55559;48.898;9.184;2023-06-22T02:15:48;98462.81;;;19.06;100.00
49843;BME280;55559;48.898;9.184;2023-06-22T02:18:15;98465.66;;;19.19;100.00
49843;BME280;55559;48.898;9.184;2023-06-22T02:20:43;98440.41;;;19.05;100.00
49843;BME280;55559;48.898;9.184;2023-06-22T02:23:10;98455.81;;;19.11;100.00
49843;BME280;55559;48.898;9.184;2023-06-22T02:25:37;98448.88;;;19.02;100.00
49843;BME280;55559;48.898;9.184;2023-06-22T02:28:04;98466.09;;;19.01;100.00
49843;BME280;55559;48.898;9.184;2023-06-22T02:30:31;98452.28;;;18.89;100.00
49843;BME280;55559;48.898;9.184;2023-06-22T02:32:58;98452.34;;;18.96;100.00
49843;BME280;55559;48.898;9.184;2023-06-22T02:35:26;98429.97;;;18.81;100.00
49843;BME280;55559;48.898;9.184;2023-06-22T02:37:58;98431.47;;;18.83;100.00
49843;BME280;55559;48.898;9.184;2023-06-22T02:40:26;98436.38;;;18.94;100.00
49843;BME280;55559;48.898;9.184;2023-06-22T02:42:55;98447.91;;;18.88;100.00
49843;BME280;55559;48.898;9.184;2023-06-22T02:45:23;98436.38;;;18.80;100.00
49843;BME280;55559;48.898;9.184;2023-06-22T02:47:50;98437.69;;;18.84;100.00
49843;BME280;55559;48.898;9.184;2023-06-22T02:50:17;98426.72;;;18.85;100.00
49843;BME280;55559;48.898;9.184;2023-06-22T02:52:44;98432.09;;;18.85;100.00
49843;BME280;55559;48.898;9.184;2023-06-22T02:55:12;98439.91;;;18.80;100.00
49843;BME280;55559;48.898;9.184;2023-06-22T02:57:40;98428.47;;;18.78;100.00
49843;BME280;55559;48.898;9.184;2023-06-22T03:00:10;98416.81;;;18.71;100.00
49843;BME280;55559;48.898;9.184;2023-06-22T03:02:43;98410.59;;;18.70;100.00
49843;BME280;55559;48.898;9.184;2023-06-22T03:05:10;98401.31;;;18.58;100.00
49843;BME280;55559;48.898;9.184;2023-06-22T03:07:40;98416.16;;;18.69;100.00
49843;BME280;55559;48.898;9.184;2023-06-22T03:10:08;98407.16;;;18.62;100.00
49843;BME280;55559;48.898;9.184;2023-06-22T03:12:37;98424.53;;;18.59;100.00
49843;BME280;55559;48.898;9.184;2023-06-22T03:15:06;98428.44;;;18.56;100.00
49843;BME280;55559;48.898;9.184;2023-06-22T03:17:33;98427.06;;;18.61;100.00
49843;BME280;55559;48.898;9.184;2023-06-22T03:20:00;98406.06;;;18.56;100.00
49843;BME280;55559;48.898;9.184;2023-06-22T03:22:31;98416.00;;;18.55;100.00
49843;BME280;55559;48.898;9.184;2023-06-22T03:24:58;98396.63;;;18.45;100.00
49843;BME280;55559;48.898;9.184;2023-06-22T03:27:25;98394.38;;;18.49;100.00
49843;BME280;55559;48.898;9.184;2023-06-22T03:29:54;98383.16;;;18.45;100.00
49843;BME280;55559;48.898;9.184;2023-06-22T03:32:21;98408.38;;;18.59;100.00
49843;BME280;55559;48.898;9.184;2023-06-22T03:34:48;98411.97;;;18.66;100.00
49843;BME280;55559;48.898;9.184;2023-06-22T03:37:16;98408.09;;;18.69;100.00
49843;BME280;55559;48.898;9.184;2023-06-22T03:39:43;98393.13;;;18.66;100.00
49843;BME280;55559;48.898;9.184;2023-06-22T03:42:10;98405.22;;;18.70;100.00
49843;BME280;55559;48.898;9.184;2023-06-22T03:44:36;98414.94;;;18.71;100.00
49843;BME280;55559;48.898;9.184;2023-06-22T03:47:06;98414.13;;;18.71;100.00
49843;BME280;55559;48.898;9.184;2023-06-22T03:49:35;98408.72;;;18.71;100.00
49843;BME280;55559;48.898;9.184;2023-06-22T03:52:02;98419.75;;;18.76;100.00
49843;BME280;55559;48.898;9.184;2023-06-22T03:54:30;98399.22;;;18.75;100.00
49843;BME280;55559;48.898;9.184;2023-06-22T03:56:57;98403.69;;;18.83;100.00
49843;BME280;55559;48.898;9.184;2023-06-22T03:59:24;98395.44;;;18.84;100.00
49843;BME280;55559;48.898;9.184;2023-06-22T04:01:51;98406.09;;;18.92;100.00
49843;BME280;55559;48.898;9.184;2023-06-22T04:04:19;98388.38;;;18.83;100.00
49843;BME280;55559;48.898;9.184;2023-06-22T04:06:46;98404.03;;;18.94;100.00
49843;BME280;55559;48.898;9.184;2023-06-22T04:09:13;98386.81;;;18.95;100.00
49843;BME280;55559;48.898;9.184;2023-06-22T04:11:40;98392.56;;;19.07;100.00
49843;BME280;55559;48.898;9.184;2023-06-22T04:14:07;98375.16;;;19.10;100.00
49843;BME280;55559;48.898;9.184;2023-06-22T04:16:34;98369.63;;;19.18;100.00
49843;BME280;55559;48.898;9.184;2023-06-22T04:19:00;98392.13;;;19.32;100.00
49843;BME280;55559;48.898;9.184;2023-06-22T04:21:28;98386.41;;;19.42;100.00
49843;BME280;55559;48.898;9.184;2023-06-22T04:23:55;98378.47;;;19.33;100.00
49843;BME280;55559;48.898;9.184;2023-06-22T04:26:22;98377.31;;;19.43;100.00
49843;BME280;55559;48.898;9.184;2023-06-22T04:28:49;98383.34;;;19.45;100.00
49843;BME280;55559;48.898;9.184;2023-06-22T04:31:21;98381.47;;;19.45;100.00
49843;BME280;55559;48.898;9.184;2023-06-22T04:33:49;98380.31;;;19.55;100.00
49843;BME280;55559;48.898;9.184;2023-06-22T04:36:16;98366.41;;;19.58;100.00
49843;BME280;55559;48.898;9.184;2023-06-22T04:38:44;98348.84;;;19.68;100.00
49843;BME280;55559;48.898;9.184;2023-06-22T04:41:11;98351.16;;;19.72;100.00
49843;BME280;55559;48.898;9.184;2023-06-22T04:43:49;98364.28;;;20.16;100.00
49843;BME280;55559;48.898;9.184;2023-06-22T04:46:19;98351.81;;;20.15;100.00
49843;BME280;55559;48.898;9.184;2023-06-22T04:48:46;98344.63;;;20.29;100.00
49843;BME280;55559;48.898;9.184;2023-06-22T04:51:12;98353.38;;;20.38;100.00
49843;BME280;55559;48.898;9.184;2023-06-22T04:53:39;98351.50;;;20.38;100.00
49843;BME280;55559;48.898;9.184;2023-06-22T04:56:08;98356.72;;;20.47;100.00
49843;BME280;55559;48.898;9.184;2023-06-22T04:58:35;98346.50;;;20.42;100.00
49843;BME280;55559;48.898;9.184;2023-06-22T05:01:02;98352.16;;;20.54;100.00
49843;BME280;55559;48.898;9.184;2023-06-22T05:03:29;98330.97;;;20.57;100.00
49843;BME280;55559;48.898;9.184;2023-06-22T05:05:55;98348.09;;;20.71;100.00
49843;BME280;55559;48.898;9.184;2023-06-22T05:08:22;98321.06;;;20.65;100.00
49843;BME280;55559;48.898;9.184;2023-06-22T05:10:51;98327.53;;;20.84;100.00
49843;BME280;55559;48.898;9.184;2023-06-22T05:13:20;98336.06;;;21.07;100.00
49843;BME280;55559;48.898;9.184;2023-06-22T05:15:47;98331.94;;;21.05;100.00
49843;BME280;55559;48.898;9.184;2023-06-22T05:18:13;98324.63;;;21.05;100.00
49843;BME280;55559;48.898;9.184;2023-06-22T05:20:40;98339.59;;;21.01;100.00
49843;BME280;55559;48.898;9.184;2023-06-22T05:23:07;98336.47;;;21.24;100.00
49843;BME280;55559;48.898;9.184;2023-06-22T05:25:34;98348.97;;;21.32;100.00
49843;BME280;55559;48.898;9.184;2023-06-22T05:28:01;98329.84;;;21.20;100.00
49843;BME280;55559;48.898;9.184;2023-06-22T05:30:37;98336.28;;;21.39;100.00
49843;BME280;55559;48.898;9.184;2023-06-22T05:33:04;98316.72;;;21.57;100.00
49843;BME280;55559;48.898;9.184;2023-06-22T05:35:31;98326.28;;;21.66;100.00
49843;BME280;55559;48.898;9.184;2023-06-22T05:37:58;98311.91;;;21.72;100.00
49843;BME280;55559;48.898;9.184;2023-06-22T05:40:25;98322.25;;;21.89;100.00
49843;BME280;55559;48.898;9.184;2023-06-22T05:42:52;98315.41;;;21.86;100.00
49843;BME280;55559;48.898;9.184;2023-06-22T05:45:19;98314.41;;;21.67;100.00
49843;BME280;55559;48.898;9.184;2023-06-22T05:47:47;98333.69;;;21.98;100.00
49843;BME280;55559;48.898;9.184;2023-06-22T05:50:14;98323.91;;;21.90;100.00
49843;BME280;55559;48.898;9.184;2023-06-22T05:52:41;98334.31;;;22.00;100.00
49843;BME280;55559;48.898;9.184;2023-06-22T05:55:08;98318.03;;;22.06;100.00
49843;BME280;55559;48.898;9.184;2023-06-22T05:57:35;98321.38;;;22.02;100.00
49843;BME280;55559;48.898;9.184;2023-06-22T06:00:03;98319.03;;;22.12;100.00
49843;BME280;55559;48.898;9.184;2023-06-22T06:02:32;98319.81;;;22.26;100.00
49843;BME280;55559;48.898;9.184;2023-06-22T06:05:00;98292.19;;;22.10;100.00
49843;BME280;55559;48.898;9.184;2023-06-22T06:07:28;98315.63;;;22.37;100.00
49843;BME280;55559;48.898;9.184;2023-06-22T06:09:55;98294.13;;;23.06;100.00
49843;BME280;55559;48.898;9.184;2023-06-22T06:12:27;98297.41;;;24.32;100.00
49843;BME280;55559;48.898;9.184;2023-06-22T06:14:54;98295.94;;;24.48;100.00
49843;BME280;55559;48.898;9.184;2023-06-22T06:17:22;98306.16;;;24.95;100.00
49843;BME280;55559;48.898;9.184;2023-06-22T06:19:49;98309.91;;;24.33;100.00
49843;BME280;55559;48.898;9.184;2023-06-22T06:22:17;98310.31;;;24.67;100.00
49843;BME280;55559;48.898;9.184;2023-06-22T06:24:44;98289.72;;;25.01;100.00
49843;BME280;55559;48.898;9.184;2023-06-22T06:27:11;98295.09;;;25.32;100.00
49843;BME280;55559;48.898;9.184;2023-06-22T06:29:37;98308.84;;;26.25;100.00
49843;BME280;55559;48.898;9.184;2023-06-22T06:32:04;98298.75;;;26.54;98.21
49843;BME280;55559;48.898;9.184;2023-06-22T06:34:31;98295.50;;;26.40;98.46
49843;BME280;55559;48.898;9.184;2023-06-22T06:36:58;98301.56;;;26.30;98.45
49843;BME280;55559;48.898;9.184;2023-06-22T06:39:27;98312.31;;;26.78;96.11
49843;BME280;55559;48.898;9.184;2023-06-22T06:41:54;98313.84;;;26.45;98.34
49843;BME280;55559;48.898;9.184;2023-06-22T06:44:20;98308.44;;;26.33;100.00
49843;BME280;55559;48.898;9.184;2023-06-22T06:46:47;98313.66;;;27.09;94.46
49843;BME280;55559;48.898;9.184;2023-06-22T06:49:14;98311.25;;;27.13;90.12
49843;BME280;55559;48.898;9.184;2023-06-22T06:51:41;98309.75;;;26.59;93.07
49843;BME280;55559;48.898;9.184;2023-06-22T06:54:08;98325.34;;;25.94;97.75
49843;BME280;55559;48.898;9.184;2023-06-22T06:56:36;98299.09;;;26.29;94.63
49843;BME280;55559;48.898;9.184;2023-06-22T06:59:03;98313.56;;;26.58;96.21
49843;BME280;55559;48.898;9.184;2023-06-22T07:01:30;98311.56;;;26.82;93.47
49843;BME280;55559;48.898;9.184;2023-06-22T07:03:59;98300.47;;;26.43;93.99
49843;BME280;55559;48.898;9.184;2023-06-22T07:06:26;98308.69;;;27.23;89.05
49843;BME280;55559;48.898;9.184;2023-06-22T07:08:57;98291.44;;;27.34;86.59
49843;BME280;55559;48.898;9.184;2023-06-22T07:11:24;98303.78;;;27.59;85.83
49843;BME280;55559;48.898;9.184;2023-06-22T07:13:52;98299.06;;;26.86;90.64
49843;BME280;55559;48.898;9.184;2023-06-22T07:16:19;98287.69;;;26.89;91.48
49843;BME280;55559;48.898;9.184;2023-06-22T07:18:46;98293.72;;;26.05;98.18
49843;BME280;55559;48.898;9.184;2023-06-22T07:21:13;98278.03;;;27.33;88.90
49843;BME280;55559;48.898;9.184;2023-06-22T07:23:39;98271.50;;;26.25;96.33
49843;BME280;55559;48.898;9.184;2023-06-22T07:26:06;98258.66;;;27.17;90.40
49843;BME280;55559;48.898;9.184;2023-06-22T07:28:33;98247.84;;;27.05;87.44
49843;BME280;55559;48.898;9.184;2023-06-22T07:31:04;98259.50;;;27.01;89.14
49843;BME280;55559;48.898;9.184;2023-06-22T07:33:31;98271.97;;;26.51;94.36
49843;BME280;55559;48.898;9.184;2023-06-22T07:35:57;98253.75;;;27.53;86.81
49843;BME280;55559;48.898;9.184;2023-06-22T07:38:24;98244.69;;;26.51;94.56
49843;BME280;55559;48.898;9.184;2023-06-22T07:40:51;98233.44;;;26.30;96.77
49843;BME280;55559;48.898;9.184;2023-06-22T07:43:18;98249.50;;;26.15;96.59
49843;BME280;55559;48.898;9.184;2023-06-22T07:45:48;98223.03;;;25.87;98.52
49843;BME280;55559;48.898;9.184;2023-06-22T07:48:20;98224.06;;;26.55;92.49
49843;BME280;55559;48.898;9.184;2023-06-22T07:50:47;98237.47;;;26.57;93.25
49843;BME280;55559;48.898;9.184;2023-06-22T07:53:14;98236.16;;;25.90;95.91
49843;BME280;55559;48.898;9.184;2023-06-22T07:55:41;98211.06;;;25.88;98.72
49843;BME280;55559;48.898;9.184;2023-06-22T07:58:08;98234.63;;;26.34;96.50
49843;BME280;55559;48.898;9.184;2023-06-22T08:00:38;98214.97;;;26.21;97.83
49843;BME280;55559;48.898;9.184;2023-06-22T08:03:05;98224.22;;;26.48;95.38
49843;BME280;55559;48.898;9.184;2023-06-22T08:05:34;98232.22;;;26.09;98.13
49843;BME280;55559;48.898;9.184;2023-06-22T08:08:01;98239.38;;;26.27;97.03
49843;BME280;55559;48.898;9.184;2023-06-22T08:10:28;98230.47;;;25.91;98.75
49843;BME280;55559;48.898;9.184;2023-06-22T08:12:55;98253.38;;;26.19;94.53
49843;BME280;55559;48.898;9.184;2023-06-22T08:15:22;98266.59;;;25.87;98.07
49843;BME280;55559;48.898;9.184;2023-06-22T08:17:48;98261.03;;;26.63;92.05
49843;BME280;55559;48.898;9.184;2023-06-22T08:20:18;98270.00;;;26.75;91.68
49843;BME280;55559;48.898;9.184;2023-06-22T08:22:46;98266.41;;;26.91;88.42
49843;BME280;55559;48.898;9.184;2023-06-22T08:25:13;98264.88;;;27.13;88.39
49843;BME280;55559;48.898;9.184;2023-06-22T08:27:40;98278.84;;;27.33;85.26
49843;BME280;55559;48.898;9.184;2023-06-22T08:30:09;98270.22;;;27.41;82.93
49843;BME280;55559;48.898;9.184;2023-06-22T08:32:36;98263.63;;;27.76;81.61
49843;BME280;55559;48.898;9.184;2023-06-22T08:35:04;98276.19;;;27.77;83.77
49843;BME280;55559;48.898;9.184;2023-06-22T08:37:32;98263.94;;;27.80;82.28
49843;BME280;55559;48.898;9.184;2023-06-22T08:40:04;98273.66;;;27.93;82.60
49843;BME280;55559;48.898;9.184;2023-06-22T08:42:33;98279.47;;;28.18;80.77
49843;BME280;55559;48.898;9.184;2023-06-22T08:45:00;98265.53;;;28.20;79.14
49843;BME280;55559;48.898;9.184;2023-06-22T08:47:27;98266.06;;;27.95;82.08
49843;BME280;55559;48.898;9.184;2023-06-22T08:49:54;98253.84;;;28.02;81.38
49843;BME280;55559;48.898;9.184;2023-06-22T08:52:22;98257.66;;;27.79;81.64
49843;BME280;55559;48.898;9.184;2023-06-22T08:54:49;98254.63;;;27.98;80.13
49843;BME280;55559;48.898;9.184;2023-06-22T08:57:20;98247.03;;;27.83;81.32
49843;BME280;55559;48.898;9.184;2023-06-22T08:59:47;98272.47;;;28.06;79.20
49843;BME280;55559;48.898;9.184;2023-06-22T09:02:14;98273.75;;;28.20;78.37
49843;BME280;55559;48.898;9.184;2023-06-22T09:04:42;98247.78;;;28.50;76.51
49843;BME280;55559;48.898;9.184;2023-06-22T09:07:09;98258.97;;;29.03;73.03
49843;BME280;55559;48.898;9.184;2023-06-22T09:09:40;98269.25;;;29.65;70.83
49843;BME280;55559;48.898;9.184;2023-06-22T09:12:07;98284.25;;;29.15;71.31
49843;BME280;55559;48.898;9.184;2023-06-22T09:14:36;98276.13;;;28.93;69.25
49843;BME280;55559;48.898;9.184;2023-06-22T09:17:03;98307.41;;;29.29;69.52
49843;BME280;55559;48.898;9.184;2023-06-22T09:19:30;98293.44;;;28.22;76.01
49843;BME280;55559;48.898;9.184;2023-06-22T09:21:58;98254.56;;;29.02;72.78
49843;BME280;55559;48.898;9.184;2023-06-22T09:24:25;98237.94;;;29.13;70.09
49843;BME280;55559;48.898;9.184;2023-06-22T09:26:52;98235.41;;;29.39;70.63
49843;BME280;55559;48.898;9.184;2023-06-22T09:29:19;98279.88;;;29.52;72.72
49843;BME280;55559;48.898;9.184;2023-06-22T09:31:47;98265.31;;;29.51;69.91
49843;BME280;55559;48.898;9.184;2023-06-22T09:34:14;98243.44;;;29.56;69.98
49843;BME280;55559;48.898;9.184;2023-06-22T09:36:41;98248.03;;;29.93;67.85
49843;BME280;55559;48.898;9.184;2023-06-22T09:39:08;98241.22;;;30.01;70.55
49843;BME280;55559;48.898;9.184;2023-06-22T09:41:34;98214.75;;;30.37;66.44
49843;BME280;55559;48.898;9.184;2023-06-22T09:44:01;98219.13;;;30.44;66.64
49843;BME280;55559;48.898;9.184;2023-06-22T09:46:28;98223.56;;;30.96;65.77
49843;BME280;55559;48.898;9.184;2023-06-22T09:48:56;98215.56;;;30.64;65.10
49843;BME280;55559;48.898;9.184;2023-06-22T09:51:23;98204.84;;;30.88;64.90
49843;BME280;55559;48.898;9.184;2023-06-22T09:53:50;98188.66;;;30.40;63.68
49843;BME280;55559;48.898;9.184;2023-06-22T09:56:18;98189.78;;;30.80;62.88
49843;BME280;55559;48.898;9.184;2023-06-22T09:58:46;98198.53;;;30.92;61.15
49843;BME280;55559;48.898;9.184;2023-06-22T10:01:16;98194.69;;;30.68;61.26
49843;BME280;55559;48.898;9.184;2023-06-22T10:03:45;98193.34;;;30.60;63.01
49843;BME280;55559;48.898;9.184;2023-06-22T10:06:15;98185.38;;;30.79;61.84
49843;BME280;55559;48.898;9.184;2023-06-22T10:12:35;98193.88;;;30.47;63.54
49843;BME280;55559;48.898;9.184;2023-06-22T10:15:02;98185.38;;;30.94;62.22
49843;BME280;55559;48.898;9.184;2023-06-22T10:17:29;98178.53;;;30.82;62.78
49843;BME280;55559;48.898;9.184;2023-06-22T10:19:56;98201.56;;;31.06;61.18
49843;BME280;55559;48.898;9.184;2023-06-22T10:22:24;98184.03;;;30.97;61.60
49843;BME280;55559;48.898;9.184;2023-06-22T10:24:51;98179.31;;;30.92;62.71
49843;BME280;55559;48.898;9.184;2023-06-22T10:27:18;98176.81;;;31.32;64.60
49843;BME280;55559;48.898;9.184;2023-06-22T10:29:45;98185.03;;;31.42;60.01
49843;BME280;55559;48.898;9.184;2023-06-22T10:32:12;98169.69;;;31.26;59.94
49843;BME280;55559;48.898;9.184;2023-06-22T10:34:39;98165.69;;;31.73;59.54
49843;BME280;55559;48.898;9.184;2023-06-22T10:37:05;98163.56;;;31.49;60.76
49843;BME280;55559;48.898;9.184;2023-06-22T10:39:34;98153.94;;;31.57;60.95
49843;BME280;55559;48.898;9.184;2023-06-22T10:42:00;98157.03;;;31.95;58.95
49843;BME280;55559;48.898;9.184;2023-06-22T10:44:27;98141.41;;;31.85;57.73
49843;BME280;55559;48.898;9.184;2023-06-22T10:46:54;98145.97;;;32.05;58.13
49843;BME280;55559;48.898;9.184;2023-06-22T10:49:21;98150.22;;;31.82;59.64
49843;BME280;55559;48.898;9.184;2023-06-22T10:51:47;98124.34;;;31.88;59.28
49843;BME280;55559;48.898;9.184;2023-06-22T10:54:14;98139.13;;;32.77;55.57
49843;BME280;55559;48.898;9.184;2023-06-22T10:56:45;98126.47;;;32.07;57.97
49843;BME280;55559;48.898;9.184;2023-06-22T10:59:12;98128.16;;;31.98;57.61
49843;BME280;55559;48.898;9.184;2023-06-22T11:01:38;98113.97;;;31.80;57.56
49843;BME280;55559;48.898;9.184;2023-06-22T11:04:05;98120.56;;;32.58;59.32
49843;BME280;55559;48.898;9.184;2023-06-22T11:06:35;98127.31;;;32.42;56.22
49843;BME280;55559;48.898;9.184;2023-06-22T11:09:01;98133.66;;;32.37;55.77
49843;BME280;55559;48.898;9.184;2023-06-22T11:11:29;98128.59;;;32.50;57.20
49843;BME280;55559;48.898;9.184;2023-06-22T11:13:57;98134.94;;;33.09;55.53
49843;BME280;55559;48.898;9.184;2023-06-22T11:16:24;98129.25;;;32.76;56.19
49843;BME280;55559;48.898;9.184;2023-06-22T11:18:51;98122.88;;;32.46;56.16
49843;BME280;55559;48.898;9.184;2023-06-22T11:21:17;98129.38;;;31.76;57.28
49843;BME280;55559;48.898;9.184;2023-06-22T11:23:45;98129.78;;;31.99;59.16
49843;BME280;55559;48.898;9.184;2023-06-22T11:26:12;98116.44;;;31.77;57.47
49843;BME280;55559;48.898;9.184;2023-06-22T11:28:39;98132.66;;;31.78;56.97
49843;BME280;55559;48.898;9.184;2023-06-22T11:42:08;98084.13;;;31.58;59.18
49843;BME280;55559;48.898;9.184;2023-06-22T11:44:35;98096.69;;;31.75;58.37
49843;BME280;55559;48.898;9.184;2023-06-22T11:47:02;98096.25;;;31.97;57.40
49843;BME280;55559;48.898;9.184;2023-06-22T12:17:14;98141.13;;;31.11;60.63
49843;BME280;55559;48.898;9.184;2023-06-22T12:19:41;98124.16;;;30.94;62.11
49843;BME280;55559;48.898;9.184;2023-06-22T12:22:08;98099.94;;;31.11;62.13
49843;BME280;55559;48.898;9.184;2023-06-22T12:24:35;98107.63;;;31.20;59.98
49843;BME280;55559;48.898;9.184;2023-06-22T12:27:02;98125.94;;;31.40;59.58
49843;BME280;55559;48.898;9.184;2023-06-22T12:29:29;98111.41;;;31.39;58.82
49843;BME280;55559;48.898;9.184;2023-06-22T12:31:56;98106.66;;;31.50;58.54
49843;BME280;55559;48.898;9.184;2023-06-22T12:34:24;98106.16;;;31.43;58.80
49843;BME280;55559;48.898;9.184;2023-06-22T12:37:00;98129.50;;;31.40;60.10
49843;BME280;55559;48.898;9.184;2023-06-22T12:39:28;98123.81;;;31.21;60.39
49843;BME280;55559;48.898;9.184;2023-06-22T12:41:55;98105.91;;;31.39;60.39
49843;BME280;55559;48.898;9.184;2023-06-22T12:44:23;98113.38;;;31.18;62.15
49843;BME280;55559;48.898;9.184;2023-06-22T12:46:50;98119.16;;;31.27;62.56
49843;BME280;55559;48.898;9.184;2023-06-22T12:49:18;98133.91;;;31.41;62.95
49843;BME280;55559;48.898;9.184;2023-06-22T12:51:46;98131.66;;;31.59;60.86
49843;BME280;55559;48.898;9.184;2023-06-22T12:54:15;98135.13;;;31.80;61.14
49843;BME280;55559;48.898;9.184;2023-06-22T12:56:42;98134.31;;;31.79;60.43
49843;BME280;55559;48.898;9.184;2023-06-22T13:00:07;98141.22;;;31.71;60.11
49843;BME280;55559;48.898;9.184;2023-06-22T13:03:37;98143.78;;;31.47;60.08
49843;BME280;55559;48.898;9.184;2023-06-22T13:06:34;98144.94;;;31.31;62.00
49843;BME280;55559;48.898;9.184;2023-06-22T13:09:02;98142.16;;;31.41;62.38
49843;BME280;55559;48.898;9.184;2023-06-22T13:11:32;98139.44;;;31.36;62.72
49843;BME280;55559;48.898;9.184;2023-06-22T13:13:59;98143.81;;;31.42;62.69
49843;BME280;55559;48.898;9.184;2023-06-22T13:16:27;98145.50;;;31.28;61.85
49843;BME280;55559;48.898;9.184;2023-06-22T13:18:54;98139.13;;;31.43;62.30
49843;BME280;55559;48.898;9.184;2023-06-22T13:21:22;98131.47;;;31.34;62.98
49843;BME280;55559;48.898;9.184;2023-06-22T13:23:49;98123.53;;;31.28;62.01
49843;BME280;55559;48.898;9.184;2023-06-22T13:26:17;98117.16;;;31.43;60.84
49843;BME280;55559;48.898;9.184;2023-06-22T13:28:46;98118.22;;;31.47;59.65
49843;BME280;55559;48.898;9.184;2023-06-22T13:31:13;98115.19;;;31.48;58.60
49843;BME280;55559;48.898;9.184;2023-06-22T13:33:41;98101.19;;;31.45;58.23
49843;BME280;55559;48.898;9.184;2023-06-22T13:36:10;98091.59;;;31.92;55.98
49843;BME280;55559;48.898;9.184;2023-06-22T13:38:37;98087.19;;;32.36;53.75
49843;BME280;55559;48.898;9.184;2023-06-22T13:41:05;98086.41;;;32.30;55.79
49843;BME280;55559;48.898;9.184;2023-06-22T13:43:33;98086.41;;;32.59;55.07